Time,TemperatureF,DewpointF,PressureIn,WindDirection,WindDirectionDegrees,WindSpeedMPH,WindSpeedGustMPH,Humidity,HourlyPrecipIn,Conditions,Clouds,dailyrainin,SolarRadiationWatts/m^2,SoftwareType,DateUTC
2013-04-25 00:01:00,38.0,13.0,30.09,WNW,303,6.0,8.0,36,-99.99,,,-99.99,0.000000,,2013-04-25 07:01:00,
2013-04-25 00:10:00,32.0,14.0,30.09,SSE,148,3.0,4.0,47,-99.99,,,-99.99,0.000000,,2013-04-25 07:10:00,
2013-04-25 00:52:00,32.0,14.0,30.09,SSE,148,3.0,4.0,47,-99.99,,,-99.99,0.000000,,2013-04-25 07:52:00,
2013-04-25 01:01:00,32.0,14.0,30.09,SSE,148,3.0,4.0,47,-99.99,,,-99.99,0.000000,,2013-04-25 08:01:00,
2013-04-25 01:10:00,32.0,13.0,30.08,WSW,240,1.0,2.0,46,-99.99,,,-99.99,0.000000,,2013-04-25 08:10:00,
2013-04-25 01:51:00,32.0,13.0,30.08,WSW,240,1.0,2.0,46,-99.99,,,-99.99,0.000000,,2013-04-25 08:51:00,
2013-04-25 02:01:00,32.0,13.0,30.08,WSW,240,1.0,2.0,46,-99.99,,,-99.99,0.000000,,2013-04-25 09:01:00,
2013-04-25 02:10:00,31.0,15.0,30.08,WSW,241,2.0,3.0,51,-99.99,,,-99.99,0.000000,,2013-04-25 09:10:00,
2013-04-25 02:52:00,31.0,15.0,30.08,WSW,241,2.0,3.0,51,-99.99,,,-99.99,0.000000,,2013-04-25 09:52:00,
2013-04-25 03:02:00,31.0,15.0,30.08,WSW,241,2.0,3.0,51,-99.99,,,-99.99,0.000000,,2013-04-25 10:02:00,
2013-04-25 03:10:00,29.0,15.0,30.07,SW,228,2.0,3.0,56,-99.99,,,-99.99,0.000000,,2013-04-25 10:10:00,
2013-04-25 03:52:00,29.0,15.0,30.07,SW,228,2.0,3.0,56,-99.99,,,-99.99,0.000000,,2013-04-25 10:52:00,
2013-04-25 04:02:00,29.0,15.0,30.07,SW,228,2.0,3.0,56,-99.99,,,-99.99,0.000000,,2013-04-25 11:02:00,
2013-04-25 04:10:00,25.0,14.0,30.07,NNW,342,2.0,3.0,64,-99.99,,,-99.99,0.000000,,2013-04-25 11:10:00,
2013-04-25 04:51:00,25.0,14.0,30.07,NNW,342,2.0,3.0,64,-99.99,,,-99.99,0.000000,,2013-04-25 11:51:00,
2013-04-25 05:01:00,25.0,14.0,30.07,NNW,342,2.0,3.0,64,-99.99,,,-99.99,0.000000,,2013-04-25 12:01:00,
2013-04-25 05:10:00,28.0,13.0,30.07,ESE,122,0.0,2.0,52,-99.99,,,-99.99,0.000000,,2013-04-25 12:10:00,
2013-04-25 05:51:00,28.0,13.0,30.07,ESE,122,0.0,2.0,52,-99.99,,,-99.99,0.000000,,2013-04-25 12:51:00,
2013-04-25 06:02:00,28.0,13.0,30.07,ESE,122,0.0,2.0,52,-99.99,,,-99.99,0.000000,,2013-04-25 13:02:00,
2013-04-25 06:10:00,25.0,15.0,30.07,WNW,292,2.0,2.0,63,-99.99,,,-99.99,30.000000,,2013-04-25 13:10:00,
2013-04-25 06:52:00,25.0,15.0,30.07,WNW,292,2.0,2.0,63,-99.99,,,-99.99,30.000000,,2013-04-25 13:52:00,
2013-04-25 07:01:00,25.0,15.0,30.07,WNW,292,2.0,2.0,63,-99.99,,,-99.99,30.000000,,2013-04-25 14:01:00,
2013-04-25 07:10:00,35.0,18.0,30.07,NNE,28,1.0,3.0,50,-99.99,,,-99.99,220.000000,,2013-04-25 14:10:00,
2013-04-25 07:51:00,35.0,18.0,30.07,NNE,28,1.0,3.0,50,-99.99,,,-99.99,220.000000,,2013-04-25 14:51:00,
2013-04-25 08:02:00,35.0,18.0,30.07,NNE,28,1.0,3.0,50,-99.99,,,-99.99,220.000000,,2013-04-25 15:02:00,
2013-04-25 08:10:00,41.0,15.0,30.07,NNE,14,2.0,4.0,34,-99.99,,,-99.99,440.000000,,2013-04-25 15:10:00,
2013-04-25 09:02:00,41.0,15.0,30.07,NNE,14,2.0,4.0,34,-99.99,,,-99.99,440.000000,,2013-04-25 16:02:00,
2013-04-25 09:10:00,47.0,16.0,30.07,ENE,63,2.0,3.0,28,-99.99,,,-99.99,650.000000,,2013-04-25 16:10:00,
2013-04-25 09:52:00,47.0,16.0,30.07,ENE,63,2.0,3.0,28,-99.99,,,-99.99,650.000000,,2013-04-25 16:52:00,
2013-04-25 10:02:00,47.0,16.0,30.07,ENE,63,2.0,3.0,28,-99.99,,,-99.99,650.000000,,2013-04-25 17:02:00,
2013-04-25 10:10:00,52.0,16.0,30.07,NE,35,3.0,6.0,24,-99.99,,,-99.99,830.000000,,2013-04-25 17:10:00,
2013-04-25 10:53:00,52.0,16.0,30.07,NE,35,3.0,6.0,24,-99.99,,,-99.99,830.000000,,2013-04-25 17:53:00,
2013-04-25 11:01:00,52.0,16.0,30.07,NE,35,3.0,6.0,24,-99.99,,,-99.99,830.000000,,2013-04-25 18:01:00,
2013-04-25 11:10:00,57.0,17.0,30.05,SSE,156,3.0,8.0,21,-99.99,,,-99.99,960.000000,,2013-04-25 18:10:00,
2013-04-25 11:52:00,57.0,17.0,30.05,SSE,156,3.0,8.0,21,-99.99,,,-99.99,960.000000,,2013-04-25 18:52:00,
2013-04-25 12:01:00,57.0,17.0,30.05,SSE,156,3.0,8.0,21,-99.99,,,-99.99,960.000000,,2013-04-25 19:01:00,
2013-04-25 12:10:00,59.0,18.0,30.03,ENE,73,7.0,12.0,20,-99.99,,,-99.99,1030.000000,,2013-04-25 19:10:00,
2013-04-25 12:52:00,59.0,18.0,30.03,ENE,73,7.0,12.0,20,-99.99,,,-99.99,1030.000000,,2013-04-25 19:52:00,
2013-04-25 13:01:00,59.0,18.0,30.03,ENE,73,7.0,12.0,20,-99.99,,,-99.99,1030.000000,,2013-04-25 20:01:00,
2013-04-25 13:10:00,61.0,17.0,30.00,ENE,63,6.0,14.0,18,-99.99,,,-99.99,1040.000000,,2013-04-25 20:10:00,
2013-04-25 13:51:00,61.0,17.0,30.00,ENE,63,6.0,14.0,18,-99.99,,,-99.99,1040.000000,,2013-04-25 20:51:00,
2013-04-25 14:01:00,61.0,17.0,30.00,ENE,63,6.0,14.0,18,-99.99,,,-99.99,1040.000000,,2013-04-25 21:01:00,
2013-04-25 14:10:00,63.0,13.0,30.00,NE,38,4.0,10.0,14,-99.99,,,-99.99,970.000000,,2013-04-25 21:10:00,
2013-04-25 14:52:00,63.0,13.0,30.00,NE,38,4.0,10.0,14,-99.99,,,-99.99,970.000000,,2013-04-25 21:52:00,
2013-04-25 15:02:00,63.0,13.0,30.00,NE,38,4.0,10.0,14,-99.99,,,-99.99,970.000000,,2013-04-25 22:02:00,
2013-04-25 15:10:00,64.0,14.0,29.98,South,186,6.0,11.0,14,-99.99,,,-99.99,830.000000,,2013-04-25 22:10:00,
2013-04-25 15:52:00,64.0,14.0,29.98,South,186,6.0,11.0,14,-99.99,,,-99.99,830.000000,,2013-04-25 22:52:00,
2013-04-25 16:02:00,64.0,14.0,29.98,South,186,6.0,11.0,14,-99.99,,,-99.99,830.000000,,2013-04-25 23:02:00,
2013-04-25 16:10:00,65.0,9.0,29.98,NNW,343,10.0,20.0,11,-99.99,,,-99.99,650.000000,,2013-04-25 23:10:00,
2013-04-25 16:52:00,65.0,9.0,29.98,NNW,343,10.0,20.0,11,-99.99,,,-99.99,650.000000,,2013-04-25 23:52:00,
2013-04-25 17:01:00,65.0,9.0,29.98,NNW,343,10.0,20.0,11,-99.99,,,-99.99,650.000000,,2013-04-26 00:01:00,
2013-04-25 17:10:00,64.0,12.0,29.98,North,360,8.0,13.0,13,-99.99,,,-99.99,450.000000,,2013-04-26 00:10:00,
2013-04-25 17:51:00,64.0,12.0,29.98,North,360,8.0,13.0,13,-99.99,,,-99.99,450.000000,,2013-04-26 00:51:00,
2013-04-25 18:01:00,64.0,12.0,29.98,North,360,8.0,13.0,13,-99.99,,,-99.99,450.000000,,2013-04-26 01:01:00,
2013-04-25 18:10:00,61.0,11.0,30.01,NNE,17,8.0,13.0,14,-99.99,,,-99.99,290.000000,,2013-04-26 01:10:00,
2013-04-25 18:52:00,61.0,11.0,30.01,NNE,17,8.0,13.0,14,-99.99,,,-99.99,290.000000,,2013-04-26 01:52:00,
2013-04-25 19:01:00,61.0,11.0,30.01,NNE,17,8.0,13.0,14,-99.99,,,-99.99,290.000000,,2013-04-26 02:01:00,
2013-04-25 19:10:00,55.0,10.0,30.03,North,6,7.0,10.0,16,-99.99,,,-99.99,20.000000,,2013-04-26 02:10:00,
2013-04-25 19:51:00,55.0,10.0,30.03,North,6,7.0,10.0,16,-99.99,,,-99.99,20.000000,,2013-04-26 02:51:00,
2013-04-25 20:01:00,55.0,10.0,30.03,North,6,7.0,10.0,16,-99.99,,,-99.99,20.000000,,2013-04-26 03:01:00,
2013-04-25 20:10:00,50.0,11.0,30.06,NW,308,7.0,9.0,21,-99.99,,,-99.99,0.000000,,2013-04-26 03:10:00,
2013-04-25 20:53:00,50.0,11.0,30.06,NW,308,7.0,9.0,21,-99.99,,,-99.99,0.000000,,2013-04-26 03:53:00,
2013-04-25 21:02:00,50.0,11.0,30.06,NW,308,7.0,9.0,21,-99.99,,,-99.99,0.000000,,2013-04-26 04:02:00,
2013-04-25 21:10:00,45.0,11.0,30.09,NW,308,6.0,8.0,25,-99.99,,,-99.99,0.000000,,2013-04-26 04:10:00,
2013-04-25 21:52:00,45.0,11.0,30.09,NW,308,6.0,8.0,25,-99.99,,,-99.99,0.000000,,2013-04-26 04:52:00,
2013-04-25 22:02:00,45.0,11.0,30.09,NW,308,6.0,8.0,25,-99.99,,,-99.99,0.000000,,2013-04-26 05:02:00,
2013-04-25 23:10:00,43.0,13.0,30.11,WNW,286,4.0,6.0,29,-99.99,,,-99.99,0.000000,,2013-04-26 06:10:00,
2013-04-25 23:51:00,43.0,13.0,30.11,WNW,286,4.0,6.0,29,-99.99,,,-99.99,0.000000,,2013-04-26 06:51:00,